createdAt,value
2023-03-29T00:00:04.644Z,0.00
2023-03-29T00:01:03.563Z,0.00
2023-03-29T00:02:05.890Z,0.00
2023-03-29T00:03:04.290Z,0.00
2023-03-29T00:04:03.022Z,0.00
2023-03-29T00:05:02.689Z,0.00
2023-03-29T00:06:03.400Z,0.00
2023-03-29T00:07:04.220Z,0.00
2023-03-29T00:08:03.330Z,0.00
2023-03-29T00:09:02.927Z,0.00
2023-03-29T00:10:03.625Z,0.00
2023-03-29T00:11:04.087Z,0.00
2023-03-29T00:12:04.950Z,0.00
2023-03-29T00:13:02.702Z,0.00
2023-03-29T00:14:02.881Z,0.00
2023-03-29T00:15:02.637Z,0.00
2023-03-29T00:16:02.013Z,0.00
2023-03-29T00:17:02.532Z,0.00
2023-03-29T00:18:03.209Z,0.00
2023-03-29T00:19:03.068Z,0.00
2023-03-29T00:20:02.754Z,0.00
2023-03-29T00:21:02.440Z,0.00
2023-03-29T00:22:02.512Z,0.00
2023-03-29T00:23:02.488Z,0.00
2023-03-29T00:24:02.045Z,0.00
2023-03-29T00:25:01.945Z,0.00
2023-03-29T00:26:01.974Z,0.00
2023-03-29T00:27:02.927Z,0.00
2023-03-29T00:28:02.044Z,0.00
2023-03-29T00:29:02.344Z,0.00
2023-03-29T00:30:03.300Z,0.00
2023-03-29T00:31:02.319Z,0.00
2023-03-29T00:32:02.406Z,0.00
2023-03-29T00:33:02.282Z,0.00
2023-03-29T00:34:02.379Z,0.00
2023-03-29T00:35:02.067Z,0.00
2023-03-29T00:36:02.036Z,0.00
2023-03-29T00:37:02.120Z,0.00
2023-03-29T00:38:02.744Z,0.00
2023-03-29T00:39:02.579Z,0.00
2023-03-29T00:40:04.256Z,0.00
2023-03-29T00:41:02.702Z,0.00
2023-03-29T00:42:01.991Z,0.00
2023-03-29T00:43:03.193Z,0.00
2023-03-29T00:44:02.378Z,0.00
2023-03-29T00:45:02.814Z,0.00
2023-03-29T00:46:02.678Z,0.00
2023-03-29T00:47:08.381Z,0.00
2023-03-29T00:48:02.096Z,0.00
2023-03-29T00:49:02.614Z,0.00
2023-03-29T00:50:01.989Z,0.00
2023-03-29T00:51:04.688Z,0.00
2023-03-29T00:52:01.904Z,0.00
2023-03-29T00:53:01.722Z,0.00
2023-03-29T00:54:02.229Z,0.00
2023-03-29T00:55:04.591Z,0.00
2023-03-29T00:56:02.460Z,0.00
2023-03-29T00:57:03.075Z,0.00
2023-03-29T00:58:02.532Z,0.00
2023-03-29T00:59:02.008Z,0.00
2023-03-29T01:00:02.899Z,0.00
2023-03-29T01:01:02.899Z,0.00
2023-03-29T01:02:02.385Z,0.00
2023-03-29T01:03:02.260Z,0.00
2023-03-29T01:04:02.307Z,0.00
2023-03-29T01:05:01.705Z,0.00
2023-03-29T01:06:01.911Z,0.00
2023-03-29T01:07:02.634Z,0.00
2023-03-29T01:08:01.771Z,0.00
2023-03-29T01:09:02.028Z,0.00
2023-03-29T01:10:01.977Z,0.00
2023-03-29T01:11:02.287Z,0.00
2023-03-29T01:12:01.875Z,0.00
2023-03-29T01:13:02.093Z,0.00
2023-03-29T01:14:02.644Z,0.00
2023-03-29T01:15:01.777Z,0.00
2023-03-29T01:16:01.995Z,0.00
2023-03-29T01:17:01.650Z,0.00
2023-03-29T01:18:02.462Z,0.00
2023-03-29T01:19:01.858Z,0.00
2023-03-29T01:20:03.172Z,0.00
2023-03-29T01:21:01.722Z,0.00
2023-03-29T01:22:02.000Z,0.00
2023-03-29T01:23:01.524Z,0.00
2023-03-29T01:24:01.597Z,0.00
2023-03-29T01:25:03.675Z,0.00
2023-03-29T01:26:03.407Z,0.00
2023-03-29T01:27:01.696Z,0.00
2023-03-29T01:28:01.545Z,0.00
2023-03-29T01:29:02.357Z,0.00
2023-03-29T01:30:01.639Z,0.00
2023-03-29T01:31:02.933Z,0.00
2023-03-29T01:32:01.725Z,0.00
2023-03-29T01:33:02.079Z,0.00
2023-03-29T01:34:02.337Z,0.00
2023-03-29T01:35:02.039Z,0.00
2023-03-29T01:36:01.846Z,0.00
2023-03-29T01:37:02.023Z,0.00
2023-03-29T01:38:01.574Z,0.00
2023-03-29T01:39:01.688Z,0.00
2023-03-29T01:40:01.455Z,0.00
2023-03-29T01:41:04.578Z,0.00
2023-03-29T01:42:01.627Z,0.00
2023-03-29T01:43:02.020Z,0.00
2023-03-29T01:44:01.109Z,0.00
2023-03-29T01:45:01.370Z,0.00
2023-03-29T01:46:01.327Z,0.00
2023-03-29T01:47:01.647Z,0.00
2023-03-29T01:48:01.761Z,0.00
2023-03-29T01:49:01.361Z,0.00
2023-03-29T01:50:01.515Z,0.00
2023-03-29T01:51:01.391Z,0.00
2023-03-29T01:52:01.345Z,0.00
2023-03-29T01:53:01.049Z,0.00
2023-03-29T01:54:01.546Z,0.00
2023-03-29T01:55:01.577Z,0.00
2023-03-29T01:56:01.483Z,0.00
2023-03-29T01:57:01.869Z,0.00
2023-03-29T01:58:02.089Z,0.00
2023-03-29T01:59:01.145Z,0.00
2023-03-29T02:00:02.287Z,0.00
2023-03-29T02:01:01.505Z,0.00
2023-03-29T02:02:01.101Z,0.00
2023-03-29T02:03:01.462Z,0.00
2023-03-29T02:04:01.147Z,0.00
2023-03-29T02:05:01.366Z,0.00
2023-03-29T02:06:02.988Z,0.00
2023-03-29T02:07:01.161Z,0.00
2023-03-29T02:08:01.383Z,0.00
2023-03-29T02:09:01.094Z,0.00
2023-03-29T02:10:01.381Z,0.00
2023-03-29T02:11:01.243Z,0.00
2023-03-29T02:12:01.223Z,0.00
2023-03-29T02:13:01.820Z,0.00
2023-03-29T02:14:01.480Z,0.00
2023-03-29T02:15:01.796Z,0.00
2023-03-29T02:16:01.921Z,0.00
2023-03-29T02:17:01.476Z,0.00
2023-03-29T02:18:02.708Z,0.00
2023-03-29T02:19:01.207Z,0.00
2023-03-29T02:20:01.329Z,0.00
2023-03-29T02:21:01.839Z,0.00
2023-03-29T02:22:01.445Z,0.00
2023-03-29T02:23:02.015Z,0.00
2023-03-29T02:24:01.019Z,0.00
2023-03-29T02:25:17.041Z,0.00
2023-03-29T02:26:01.096Z,0.00
2023-03-29T02:27:04.495Z,0.00
2023-03-29T02:28:02.035Z,0.00
2023-03-29T02:29:01.231Z,0.00
2023-03-29T02:30:01.030Z,0.00
2023-03-29T02:31:02.320Z,0.00
2023-03-29T02:32:02.397Z,0.00
2023-03-29T02:33:00.974Z,0.00
2023-03-29T02:34:01.397Z,0.00
2023-03-29T02:35:01.688Z,0.00
2023-03-29T02:36:01.936Z,0.00
2023-03-29T02:37:00.717Z,0.00
2023-03-29T02:38:00.711Z,0.00
2023-03-29T02:39:01.126Z,0.00
2023-03-29T02:40:00.593Z,0.00
2023-03-29T02:41:00.755Z,0.00
2023-03-29T02:42:01.508Z,0.00
2023-03-29T02:43:01.274Z,0.00
2023-03-29T02:44:00.955Z,0.00
2023-03-29T02:45:01.747Z,0.00
2023-03-29T02:46:00.876Z,0.00
2023-03-29T02:47:00.695Z,0.00
2023-03-29T02:48:00.820Z,0.00
2023-03-29T02:49:00.732Z,0.00
2023-03-29T02:50:00.453Z,0.00
2023-03-29T02:51:01.158Z,0.00
2023-03-29T02:52:01.738Z,0.00
2023-03-29T02:53:00.588Z,0.00
2023-03-29T02:54:01.051Z,0.00
2023-03-29T02:55:00.380Z,0.00
2023-03-29T02:56:01.217Z,0.00
2023-03-29T02:57:01.487Z,0.00
2023-03-29T02:58:00.716Z,0.00
2023-03-29T02:59:00.450Z,0.00
2023-03-29T03:00:01.000Z,0.00
2023-03-29T03:01:00.566Z,0.00
2023-03-29T03:02:02.883Z,0.00
2023-03-29T03:03:02.049Z,0.00
2023-03-29T03:04:01.705Z,0.00
2023-03-29T03:05:00.290Z,0.00
2023-03-29T03:06:00.764Z,0.00
2023-03-29T03:07:00.677Z,0.00
2023-03-29T03:08:00.620Z,0.00
2023-03-29T03:09:00.339Z,0.00
2023-03-29T03:10:00.542Z,0.00
2023-03-29T03:11:00.321Z,0.00
2023-03-29T03:12:00.692Z,0.00
2023-03-29T03:13:00.550Z,0.00
2023-03-29T03:14:00.345Z,0.00
2023-03-29T03:15:00.193Z,0.00
2023-03-29T03:16:00.682Z,0.00
2023-03-29T03:17:03.114Z,0.00
2023-03-29T03:18:00.458Z,0.00
2023-03-29T03:19:00.787Z,0.00
2023-03-29T03:20:01.184Z,0.00
2023-03-29T03:21:02.368Z,0.00
2023-03-29T03:22:00.352Z,0.00
2023-03-29T03:23:00.715Z,0.00
2023-03-29T03:24:01.040Z,0.00
2023-03-29T03:25:00.503Z,0.00
2023-03-29T03:26:01.778Z,0.00
2023-03-29T03:27:01.208Z,0.00
2023-03-29T03:28:01.795Z,0.00
2023-03-29T03:29:01.457Z,0.00
2023-03-29T03:30:00.686Z,0.00
2023-03-29T03:31:00.571Z,0.00
2023-03-29T03:32:00.539Z,0.00
2023-03-29T03:33:00.163Z,0.00
2023-03-29T03:34:01.431Z,0.00
2023-03-29T03:35:00.681Z,0.00
2023-03-29T03:36:00.793Z,0.00
2023-03-29T03:37:01.240Z,0.00
2023-03-29T03:41:39.790Z,0.00
2023-03-29T03:45:54.095Z,0.00
2023-03-29T03:46:55.240Z,0.00
2023-03-29T03:47:55.086Z,0.00
2023-03-29T03:48:55.220Z,0.00
2023-03-29T03:49:55.033Z,0.00
2023-03-29T03:50:54.614Z,0.00
2023-03-29T03:51:55.074Z,0.00
2023-03-29T03:52:55.145Z,0.00
2023-03-29T03:53:54.839Z,0.00
2023-03-29T03:54:55.379Z,0.00
2023-03-29T03:55:54.801Z,0.00
2023-03-29T03:56:55.944Z,0.00
2023-03-29T03:57:54.823Z,0.00
2023-03-29T03:58:55.210Z,0.00
2023-03-29T03:59:54.857Z,0.00
2023-03-29T04:00:54.928Z,0.00
2023-03-29T04:01:54.717Z,0.00
2023-03-29T04:02:54.951Z,0.00
2023-03-29T04:03:54.975Z,0.00
2023-03-29T04:04:54.670Z,0.00
2023-03-29T04:05:54.489Z,0.00
2023-03-29T04:06:54.449Z,0.00
2023-03-29T04:07:55.692Z,0.00
2023-03-29T04:08:54.329Z,0.00
2023-03-29T04:09:54.251Z,0.00
2023-03-29T04:10:54.259Z,0.00
2023-03-29T04:11:54.244Z,0.00
2023-03-29T04:12:54.132Z,0.00
2023-03-29T04:13:54.442Z,0.00
2023-03-29T04:14:54.198Z,0.00
2023-03-29T04:15:54.357Z,0.00
2023-03-29T04:16:53.993Z,0.00
2023-03-29T04:17:54.082Z,0.00
2023-03-29T04:18:54.026Z,0.00
2023-03-29T04:19:53.932Z,0.00
2023-03-29T04:20:54.237Z,0.00
2023-03-29T04:21:54.204Z,0.00
2023-03-29T04:22:54.093Z,0.00
2023-03-29T04:23:54.268Z,0.00
2023-03-29T04:24:54.395Z,0.00
2023-03-29T04:25:54.166Z,0.00
2023-03-29T04:26:54.446Z,0.00
2023-03-29T04:27:54.589Z,0.00
2023-03-29T04:28:54.720Z,0.00
2023-03-29T04:29:54.197Z,0.00
2023-03-29T04:30:54.073Z,0.00
2023-03-29T04:31:54.128Z,0.00
2023-03-29T04:32:54.057Z,0.00
2023-03-29T04:33:54.296Z,0.00
2023-03-29T04:34:54.060Z,0.00
2023-03-29T04:35:53.973Z,0.00
2023-03-29T04:36:53.989Z,0.00
2023-03-29T04:37:54.327Z,0.00
2023-03-29T04:38:54.268Z,0.00
2023-03-29T04:39:56.894Z,0.00
2023-03-29T04:40:54.762Z,0.00
2023-03-29T04:41:54.725Z,0.00
2023-03-29T04:42:54.325Z,0.00
2023-03-29T04:43:54.926Z,0.00
2023-03-29T04:44:54.974Z,0.00
2023-03-29T04:45:54.647Z,0.00
2023-03-29T04:46:54.213Z,0.00
2023-03-29T04:47:54.832Z,0.00
2023-03-29T04:48:54.137Z,0.00
2023-03-29T04:49:54.277Z,1.00
2023-03-29T04:50:54.323Z,1.00
2023-03-29T04:51:54.492Z,1.00
2023-03-29T04:52:53.887Z,1.00
2023-03-29T04:53:54.296Z,0.00
2023-03-29T04:54:53.939Z,0.00
2023-03-29T04:55:54.039Z,2.00
2023-03-29T04:56:54.366Z,2.00
2023-03-29T04:57:56.145Z,2.00
2023-03-29T04:58:53.874Z,1.00
2023-03-29T04:59:54.710Z,1.00
2023-03-29T05:00:56.706Z,2.00
2023-03-29T05:01:56.242Z,2.00
2023-03-29T05:02:54.344Z,6.00
2023-03-29T05:03:55.048Z,4.00
2023-03-29T05:04:54.719Z,7.00
2023-03-29T05:05:54.251Z,5.00
2023-03-29T05:06:54.625Z,4.00
2023-03-29T05:07:56.345Z,6.00
2023-03-29T05:08:54.478Z,7.00
2023-03-29T05:11:33.157Z,12.00
2023-03-29T05:12:34.040Z,10.00
2023-03-29T05:13:33.887Z,10.00
2023-03-29T05:14:33.666Z,14.00
2023-03-29T05:15:33.653Z,19.00
2023-03-29T05:16:33.873Z,27.00
2023-03-29T05:17:33.724Z,29.00
2023-03-29T05:18:33.739Z,28.00
2023-03-29T05:19:33.837Z,37.00
2023-03-29T05:20:33.722Z,34.00
2023-03-29T05:21:33.688Z,52.00
2023-03-29T05:22:33.703Z,46.00
2023-03-29T05:23:33.776Z,41.00
2023-03-29T05:24:33.655Z,39.00
2023-03-29T05:25:33.721Z,36.00
2023-03-29T05:26:33.712Z,50.00
2023-03-29T05:27:33.877Z,42.00
2023-03-29T05:28:33.848Z,52.00
2023-03-29T05:29:33.665Z,75.00
2023-03-29T05:30:33.637Z,110.00
2023-03-29T05:31:34.787Z,95.00
2023-03-29T05:32:33.432Z,86.00
2023-03-29T05:33:33.412Z,100.00
2023-03-29T05:34:33.488Z,87.00
2023-03-29T05:35:33.424Z,101.00
2023-03-29T05:36:33.360Z,94.00
2023-03-29T05:37:33.422Z,103.00
2023-03-29T05:38:33.332Z,106.00
2023-03-29T05:39:35.149Z,107.00
2023-03-29T05:40:33.278Z,99.00
2023-03-29T05:41:33.302Z,125.00
2023-03-29T05:42:33.496Z,135.00
2023-03-29T05:43:33.272Z,161.00
2023-03-29T05:44:33.276Z,160.00
2023-03-29T05:45:33.275Z,182.00
2023-03-29T05:46:33.310Z,204.00
2023-03-29T05:47:33.212Z,211.00
2023-03-29T05:48:33.266Z,227.00
2023-03-29T05:49:33.180Z,233.00
2023-03-29T05:50:33.182Z,227.00
2023-03-29T05:51:33.168Z,223.00
2023-03-29T05:52:33.133Z,216.00
2023-03-29T05:53:33.348Z,189.00
2023-03-29T05:54:33.170Z,195.00
2023-03-29T05:55:33.173Z,234.00
2023-03-29T05:56:33.170Z,252.00
2023-03-29T05:57:33.100Z,268.00
2023-03-29T05:58:33.109Z,260.00
2023-03-29T05:59:33.147Z,261.00
2023-03-29T06:00:33.102Z,274.00
2023-03-29T06:01:33.138Z,283.00
2023-03-29T06:02:33.122Z,251.00
2023-03-29T06:03:33.194Z,231.00
2023-03-29T06:04:33.083Z,258.00
2023-03-29T06:05:33.008Z,296.00
2023-03-29T06:06:33.016Z,329.00
2023-03-29T06:07:33.003Z,308.00
2023-03-29T06:08:32.975Z,306.00
2023-03-29T06:09:33.016Z,313.00
2023-03-29T06:10:33.006Z,335.00
2023-03-29T06:11:32.983Z,319.00
2023-03-29T06:12:32.989Z,314.00
2023-03-29T06:13:32.990Z,339.00
2023-03-29T06:14:32.918Z,332.00
2023-03-29T06:15:32.998Z,332.00
2023-03-29T06:16:32.939Z,348.00
2023-03-29T06:17:32.961Z,370.00
2023-03-29T06:18:32.908Z,438.00
2023-03-29T06:19:32.867Z,455.00
2023-03-29T06:20:32.882Z,422.00
2023-03-29T06:21:32.847Z,494.00
2023-03-29T06:22:32.823Z,463.00
2023-03-29T06:23:32.856Z,583.00
2023-03-29T06:24:32.869Z,675.00
2023-03-29T06:25:32.827Z,665.00
2023-03-29T06:26:32.809Z,674.00
2023-03-29T06:27:32.806Z,655.00
2023-03-29T06:28:32.813Z,634.00
2023-03-29T06:29:32.797Z,688.00
2023-03-29T06:30:32.757Z,772.00
2023-03-29T06:31:32.789Z,706.00
2023-03-29T06:32:32.767Z,655.00
2023-03-29T06:33:32.757Z,644.00
2023-03-29T06:34:32.719Z,660.00
2023-03-29T06:35:32.760Z,636.00
2023-03-29T06:36:32.681Z,688.00
2023-03-29T06:37:32.749Z,753.00
2023-03-29T06:38:32.655Z,636.00
2023-03-29T06:39:32.657Z,678.00
2023-03-29T06:40:32.647Z,697.00
2023-03-29T06:41:32.743Z,600.00
2023-03-29T06:42:32.664Z,614.00
2023-03-29T06:43:32.743Z,632.00
2023-03-29T06:44:32.634Z,733.00
2023-03-29T06:45:32.714Z,769.00
2023-03-29T06:46:32.658Z,788.00
2023-03-29T06:47:32.662Z,743.00
2023-03-29T06:48:32.658Z,760.00
2023-03-29T06:49:32.638Z,850.00
2023-03-29T06:50:32.559Z,851.00
2023-03-29T06:51:32.584Z,774.00
2023-03-29T06:52:32.524Z,738.00
2023-03-29T06:53:32.540Z,654.00
2023-03-29T06:54:32.720Z,625.00
2023-03-29T06:55:32.552Z,898.00
2023-03-29T06:56:32.847Z,1281.00
2023-03-29T06:57:32.630Z,1310.00
2023-03-29T06:58:32.607Z,1392.00
2023-03-29T06:59:32.510Z,1325.00
2023-03-29T07:00:32.509Z,1405.00
2023-03-29T07:01:32.592Z,1510.00
2023-03-29T07:02:32.537Z,1436.00
2023-03-29T07:03:32.577Z,1297.00
2023-03-29T07:04:32.544Z,1967.00
2023-03-29T07:05:32.452Z,1784.00
2023-03-29T07:06:32.421Z,1136.00
2023-03-29T07:07:32.404Z,949.00
2023-03-29T07:08:32.356Z,957.00
2023-03-29T07:09:32.492Z,1095.00
2023-03-29T07:10:32.806Z,1159.00
2023-03-29T07:11:32.392Z,1127.00
2023-03-29T07:12:32.341Z,1142.00
2023-03-29T07:13:32.292Z,1088.00
2023-03-29T07:14:32.313Z,1200.00
2023-03-29T07:15:32.299Z,1249.00
2023-03-29T07:16:32.614Z,1244.00
2023-03-29T07:17:32.361Z,1164.00
2023-03-29T07:18:32.359Z,1047.00
2023-03-29T07:19:32.334Z,1256.00
2023-03-29T07:20:32.273Z,1284.00
2023-03-29T07:21:32.260Z,1285.00
2023-03-29T07:22:32.237Z,1569.00
2023-03-29T07:23:32.277Z,1685.00
2023-03-29T07:24:32.249Z,1672.00
2023-03-29T07:25:32.410Z,1807.00
2023-03-29T07:26:32.485Z,1876.00
2023-03-29T07:27:32.309Z,1852.00
2023-03-29T07:28:32.203Z,1647.00
2023-03-29T07:29:32.189Z,1531.00
2023-03-29T07:30:32.693Z,1304.00
2023-03-29T07:31:32.176Z,1745.00
2023-03-29T07:32:32.298Z,2488.00
2023-03-29T07:33:32.352Z,2347.00
2023-03-29T07:34:32.190Z,2270.00
2023-03-29T07:35:32.128Z,2139.00
2023-03-29T07:36:32.196Z,1797.00
2023-03-29T07:37:32.298Z,1895.00
2023-03-29T07:38:32.195Z,1977.00
2023-03-29T07:39:32.108Z,1713.00
2023-03-29T07:40:32.680Z,1462.00
2023-03-29T07:41:32.013Z,1391.00
2023-03-29T07:42:32.057Z,1384.00
2023-03-29T07:43:32.227Z,1021.00
2023-03-29T07:44:32.102Z,975.00
2023-03-29T07:45:32.097Z,1120.00
2023-03-29T07:46:31.996Z,1159.00
2023-03-29T07:47:32.089Z,1270.00
2023-03-29T07:48:31.966Z,1356.00
2023-03-29T07:49:32.132Z,1610.00
2023-03-29T07:50:31.997Z,1708.00
2023-03-29T07:51:31.932Z,2230.00
2023-03-29T07:52:31.960Z,1849.00
2023-03-29T07:53:31.878Z,2179.00
2023-03-29T07:54:31.995Z,2546.00
2023-03-29T07:55:31.848Z,2368.00
2023-03-29T07:56:31.869Z,1807.00
2023-03-29T07:57:31.897Z,1413.00
2023-03-29T07:58:31.925Z,1103.00
2023-03-29T07:59:32.112Z,1270.00
2023-03-29T08:00:32.068Z,1494.00
2023-03-29T08:01:31.889Z,1717.00
2023-03-29T08:02:31.842Z,2267.00
2023-03-29T08:03:31.883Z,2304.00
2023-03-29T08:04:31.887Z,1865.00
2023-03-29T08:05:40.623Z,1906.00
2023-03-29T08:06:31.803Z,2473.00
2023-03-29T08:07:31.818Z,2179.00
2023-03-29T08:08:31.813Z,2149.00
2023-03-29T08:09:31.863Z,1930.00
2023-03-29T08:10:31.929Z,2016.00
2023-03-29T08:11:31.804Z,2083.00
2023-03-29T08:12:31.712Z,2209.00
2023-03-29T08:13:31.754Z,2158.00
2023-03-29T08:14:31.714Z,2047.00
2023-03-29T08:15:31.598Z,1970.00
2023-03-29T08:16:31.691Z,1867.00
2023-03-29T08:17:31.649Z,1943.00
2023-03-29T08:18:34.133Z,2093.00
2023-03-29T08:19:31.633Z,2900.00
2023-03-29T08:20:31.556Z,3732.00
2023-03-29T08:21:31.598Z,2953.00
2023-03-29T08:22:31.557Z,2379.00
2023-03-29T08:23:31.558Z,1991.00
2023-03-29T08:24:31.515Z,2065.00
2023-03-29T08:25:31.563Z,2415.00
2023-03-29T08:26:31.547Z,2374.00
2023-03-29T08:27:31.545Z,2411.00
2023-03-29T08:28:31.497Z,2450.00
2023-03-29T08:29:31.468Z,2134.00
2023-03-29T08:30:31.472Z,1558.00
2023-03-29T08:31:31.505Z,1509.00
2023-03-29T08:32:31.479Z,1701.00
2023-03-29T08:33:31.502Z,1746.00
2023-03-29T08:34:31.456Z,1824.00
2023-03-29T08:35:31.420Z,1542.00
2023-03-29T08:36:31.406Z,1503.00
2023-03-29T08:37:31.396Z,1481.00
2023-03-29T08:38:31.370Z,1246.00
2023-03-29T08:39:31.441Z,1203.00
2023-03-29T08:40:31.368Z,1117.00
2023-03-29T08:41:31.348Z,1050.00
2023-03-29T08:42:31.321Z,1548.00
2023-03-29T08:43:31.370Z,2247.00
2023-03-29T08:44:31.332Z,1742.00
2023-03-29T08:45:31.366Z,1148.00
2023-03-29T08:46:35.185Z,1121.00
2023-03-29T08:47:31.301Z,1203.00
2023-03-29T08:48:31.300Z,1237.00
2023-03-29T08:49:31.315Z,1223.00
2023-03-29T08:50:31.286Z,1270.00
2023-03-29T08:51:31.229Z,1562.00
2023-03-29T08:52:31.306Z,2132.00
2023-03-29T08:53:31.248Z,1471.00
2023-03-29T08:54:31.218Z,1274.00
2023-03-29T08:55:31.626Z,2041.00
2023-03-29T08:56:33.636Z,2465.00
2023-03-29T08:57:31.233Z,2316.00
2023-03-29T08:58:31.180Z,1799.00
2023-03-29T08:59:31.163Z,1572.00
2023-03-29T09:00:31.172Z,1573.00
2023-03-29T09:01:31.261Z,1729.00
2023-03-29T09:02:31.263Z,1762.00
2023-03-29T09:03:31.210Z,1636.00
2023-03-29T09:04:31.096Z,1451.00
2023-03-29T09:05:31.086Z,1580.00
2023-03-29T09:06:31.106Z,1766.00
2023-03-29T09:07:31.083Z,1715.00
2023-03-29T09:08:31.125Z,2003.00
2023-03-29T09:09:31.089Z,2467.00
2023-03-29T09:10:31.045Z,1936.00
2023-03-29T09:11:31.044Z,2742.00
2023-03-29T09:12:31.031Z,3310.00
2023-03-29T09:13:31.101Z,3061.00
2023-03-29T09:14:31.028Z,2711.00
2023-03-29T09:15:30.976Z,3190.00
2023-03-29T09:16:31.087Z,3907.00
2023-03-29T09:17:30.995Z,3133.00
2023-03-29T09:18:30.964Z,3127.00
2023-03-29T09:19:30.947Z,3849.00
2023-03-29T09:20:30.907Z,2792.00
2023-03-29T09:21:30.949Z,2986.00
2023-03-29T09:22:30.938Z,2950.00
2023-03-29T09:23:30.905Z,1974.00
2023-03-29T09:24:30.871Z,1823.00
2023-03-29T09:25:32.951Z,2015.00
2023-03-29T09:26:30.880Z,1694.00
2023-03-29T09:27:30.895Z,1969.00
2023-03-29T09:28:30.902Z,1347.00
2023-03-29T09:29:30.891Z,2651.00
2023-03-29T09:30:30.853Z,2940.00
2023-03-29T09:31:30.920Z,1899.00
2023-03-29T09:32:30.846Z,2158.00
2023-03-29T09:33:30.803Z,2273.00
2023-03-29T09:34:30.813Z,2512.00
2023-03-29T09:35:30.882Z,2298.00
2023-03-29T09:36:30.788Z,2563.00
2023-03-29T09:37:30.777Z,2580.00
2023-03-29T09:38:30.739Z,2466.00
2023-03-29T09:39:30.735Z,2238.00
2023-03-29T09:40:30.745Z,1908.00
2023-03-29T09:41:30.750Z,1863.00
2023-03-29T09:42:30.711Z,1815.00
2023-03-29T09:43:30.748Z,1816.00
2023-03-29T09:44:31.660Z,1919.00
2023-03-29T09:45:30.696Z,1785.00
2023-03-29T09:46:30.702Z,1559.00
2023-03-29T09:47:30.652Z,1429.00
2023-03-29T09:48:30.667Z,1255.00
2023-03-29T09:49:30.674Z,1198.00
2023-03-29T09:50:31.880Z,1098.00
2023-03-29T09:51:30.602Z,1036.00
2023-03-29T09:52:30.615Z,877.00
2023-03-29T09:53:30.660Z,854.00
2023-03-29T09:54:30.600Z,1195.00
2023-03-29T09:55:30.619Z,1075.00
2023-03-29T09:56:30.584Z,1680.00
2023-03-29T09:57:30.631Z,1627.00
2023-03-29T09:58:30.559Z,961.00
2023-03-29T09:59:30.508Z,868.00
2023-03-29T10:00:30.520Z,960.00
2023-03-29T10:01:30.542Z,1334.00
2023-03-29T10:02:30.680Z,1552.00
2023-03-29T10:03:30.454Z,1148.00
2023-03-29T10:04:30.513Z,850.00
2023-03-29T10:05:30.546Z,1066.00
2023-03-29T10:06:30.453Z,1234.00
2023-03-29T10:07:30.433Z,1477.00
2023-03-29T10:08:30.603Z,1219.00
2023-03-29T10:09:30.468Z,1159.00
2023-03-29T10:10:30.433Z,1222.00
2023-03-29T10:11:30.473Z,1240.00
2023-03-29T10:12:30.424Z,1085.00
2023-03-29T10:13:30.451Z,1255.00
2023-03-29T10:14:30.484Z,1527.00
2023-03-29T10:15:30.791Z,1836.00
2023-03-29T10:16:30.440Z,1565.00
2023-03-29T10:17:30.387Z,1624.00
2023-03-29T10:18:30.346Z,1630.00
2023-03-29T10:19:30.330Z,1289.00
2023-03-29T10:20:30.353Z,1365.00
2023-03-29T10:21:30.359Z,1725.00
2023-03-29T10:22:30.310Z,1612.00
2023-03-29T10:23:30.589Z,1553.00
2023-03-29T10:24:30.277Z,1532.00
2023-03-29T10:25:30.276Z,1093.00
2023-03-29T10:26:30.252Z,1559.00
2023-03-29T10:27:30.260Z,1743.00
2023-03-29T10:28:30.224Z,1761.00
2023-03-29T10:29:30.188Z,2613.00
2023-03-29T10:30:30.197Z,3184.00
2023-03-29T10:31:30.187Z,2944.00
2023-03-29T10:32:30.225Z,2434.00
2023-03-29T10:33:30.186Z,2163.00
2023-03-29T10:34:30.225Z,2072.00
2023-03-29T10:35:30.151Z,2472.00
2023-03-29T10:36:30.154Z,2469.00
2023-03-29T10:37:30.195Z,2186.00
2023-03-29T10:38:30.139Z,2117.00
2023-03-29T10:39:30.096Z,2402.00
2023-03-29T10:40:30.143Z,2189.00
2023-03-29T10:41:30.095Z,2635.00
2023-03-29T10:42:30.238Z,2722.00
2023-03-29T10:43:30.050Z,2589.00
2023-03-29T10:44:32.806Z,1880.00
2023-03-29T10:45:30.084Z,1652.00
2023-03-29T10:46:30.420Z,1934.00
2023-03-29T10:47:30.137Z,1902.00
2023-03-29T10:48:30.059Z,2028.00
2023-03-29T10:49:30.006Z,2461.00
2023-03-29T10:50:30.001Z,2701.00
2023-03-29T10:51:30.043Z,3274.00
2023-03-29T10:52:29.993Z,3680.00
2023-03-29T10:53:29.971Z,3391.00
2023-03-29T10:54:29.943Z,4114.00
2023-03-29T10:55:29.962Z,4494.00
2023-03-29T10:56:29.968Z,4247.00
2023-03-29T10:57:29.981Z,3821.00
2023-03-29T10:58:29.978Z,4196.00
2023-03-29T10:59:30.039Z,3733.00
2023-03-29T11:00:29.925Z,3336.00
2023-03-29T11:01:29.905Z,3164.00
2023-03-29T11:02:30.015Z,4107.00
2023-03-29T11:03:30.006Z,3313.00
2023-03-29T11:04:29.937Z,3373.00
2023-03-29T11:05:29.936Z,3165.00
2023-03-29T11:06:29.904Z,2532.00
2023-03-29T11:07:29.904Z,2623.00
2023-03-29T11:08:31.741Z,2677.00
2023-03-29T11:09:29.836Z,2597.00
2023-03-29T11:10:29.797Z,2779.00
2023-03-29T11:11:29.840Z,2378.00
2023-03-29T11:12:29.869Z,2509.00
2023-03-29T11:13:29.876Z,3386.00
2023-03-29T11:14:29.795Z,3660.00
2023-03-29T11:15:29.980Z,2943.00
2023-03-29T11:16:29.739Z,2412.00
2023-03-29T11:17:29.829Z,1951.00
2023-03-29T11:18:29.709Z,1769.00
2023-03-29T11:19:29.672Z,1866.00
2023-03-29T11:20:29.774Z,1787.00
2023-03-29T11:21:29.689Z,2177.00
2023-03-29T11:22:29.738Z,1716.00
2023-03-29T11:23:29.720Z,1970.00
2023-03-29T11:24:29.643Z,2002.00
2023-03-29T11:25:29.826Z,2502.00
2023-03-29T11:26:29.684Z,2328.00
2023-03-29T11:27:29.629Z,2314.00
2023-03-29T11:28:30.165Z,2950.00
2023-03-29T11:29:29.670Z,2839.00
2023-03-29T11:30:29.605Z,2515.00
2023-03-29T11:31:29.620Z,2230.00
2023-03-29T11:32:29.616Z,2737.00
2023-03-29T11:33:29.572Z,2623.00
2023-03-29T11:34:29.624Z,3111.00
2023-03-29T11:35:29.504Z,3822.00
2023-03-29T11:36:29.502Z,3805.00
2023-03-29T11:37:29.531Z,3868.00
2023-03-29T11:38:29.515Z,3835.00
2023-03-29T11:39:29.536Z,3752.00
2023-03-29T11:40:29.473Z,4180.00
2023-03-29T11:41:29.485Z,4491.00
2023-03-29T11:42:29.471Z,4282.00
2023-03-29T11:43:29.448Z,3848.00
2023-03-29T11:44:29.477Z,3607.00
2023-03-29T11:45:29.424Z,3026.00
2023-03-29T11:46:29.539Z,2952.00
2023-03-29T11:47:29.438Z,2802.00
2023-03-29T11:48:29.418Z,2659.00
2023-03-29T11:49:29.445Z,2363.00
2023-03-29T11:50:29.444Z,2503.00
2023-03-29T11:51:29.353Z,3357.00
2023-03-29T11:52:29.383Z,3186.00
2023-03-29T11:53:29.322Z,2935.00
2023-03-29T11:54:29.385Z,2526.00
2023-03-29T11:55:29.385Z,2109.00
2023-03-29T11:56:29.395Z,2379.00
2023-03-29T11:57:29.356Z,2986.00
2023-03-29T11:58:29.348Z,3187.00
2023-03-29T11:59:29.275Z,3097.00
2023-03-29T12:00:29.392Z,2875.00
2023-03-29T12:01:29.218Z,2648.00
2023-03-29T12:02:29.395Z,2643.00
2023-03-29T12:03:29.390Z,2798.00
2023-03-29T12:04:29.265Z,2602.00
2023-03-29T12:05:29.219Z,3361.00
2023-03-29T12:06:29.220Z,3690.00
2023-03-29T12:07:29.201Z,4468.00
2023-03-29T12:08:29.227Z,4324.00
2023-03-29T12:09:29.209Z,3836.00
2023-03-29T12:10:29.164Z,3639.00
2023-03-29T12:11:29.148Z,3942.00
2023-03-29T12:12:29.180Z,4291.00
2023-03-29T12:13:29.106Z,4321.00
2023-03-29T12:14:29.128Z,4252.00
2023-03-29T12:15:29.141Z,4586.00
2023-03-29T12:16:29.114Z,4659.00
2023-03-29T12:17:29.124Z,3683.00
2023-03-29T12:18:29.122Z,3174.00
2023-03-29T12:19:29.111Z,2960.00
2023-03-29T12:20:29.056Z,3038.00
2023-03-29T12:21:29.008Z,3364.00
2023-03-29T12:22:29.041Z,3654.00
2023-03-29T12:23:29.050Z,3419.00
2023-03-29T12:24:29.007Z,2882.00
2023-03-29T12:25:29.093Z,2824.00
2023-03-29T12:26:28.990Z,4112.00
2023-03-29T12:27:29.026Z,4184.00
2023-03-29T12:28:28.985Z,3526.00
2023-03-29T12:29:28.966Z,2846.00
2023-03-29T12:30:28.983Z,2356.00
2023-03-29T12:31:28.966Z,2228.00
2023-03-29T12:32:28.989Z,2416.00
2023-03-29T12:33:28.926Z,2678.00
2023-03-29T12:34:28.940Z,2993.00
2023-03-29T12:35:28.935Z,3019.00
2023-03-29T12:36:28.864Z,2544.00
2023-03-29T12:37:28.841Z,2014.00
2023-03-29T12:38:30.958Z,2038.00
2023-03-29T12:39:28.858Z,2408.00
2023-03-29T12:40:28.849Z,2589.00
2023-03-29T12:41:28.840Z,2890.00
2023-03-29T12:42:28.859Z,1985.00
2023-03-29T12:43:28.820Z,1702.00
2023-03-29T12:44:28.847Z,1760.00
2023-03-29T12:45:28.911Z,2009.00